sensor_id;sensor_type;location;lat;lon;timestamp;pressure;altitude;pressure_sealevel;temperature;humidity
79645;BME280;69117;47.148;18.954;2023-04-19T00:00:39;100574.63;;;11.04;73.67
79645;BME280;69117;47.148;18.954;2023-04-19T00:03:41;100581.16;;;11.09;73.32
79645;BME280;69117;47.148;18.954;2023-04-19T00:06:43;100576.69;;;11.10;73.22
79645;BME280;69117;47.148;18.954;2023-04-19T00:09:44;100573.38;;;11.08;72.74
79645;BME280;69117;47.148;18.954;2023-04-19T00:12:46;100576.59;;;11.02;72.88
79645;BME280;69117;47.148;18.954;2023-04-19T00:15:48;100543.78;;;10.85;72.89
79645;BME280;69117;47.148;18.954;2023-04-19T00:18:49;100553.38;;;10.86;73.00
79645;BME280;69117;47.148;18.954;2023-04-19T00:21:51;100561.16;;;10.97;72.62
79645;BME280;69117;47.148;18.954;2023-04-19T00:24:53;100565.31;;;10.99;73.07
79645;BME280;69117;47.148;18.954;2023-04-19T00:27:54;100554.06;;;10.97;72.75
79645;BME280;69117;47.148;18.954;2023-04-19T00:30:56;100544.75;;;10.93;72.75
79645;BME280;69117;47.148;18.954;2023-04-19T00:33:58;100547.81;;;10.89;72.11
79645;BME280;69117;47.148;18.954;2023-04-19T00:36:59;100514.72;;;10.75;72.96
79645;BME280;69117;47.148;18.954;2023-04-19T00:40:01;100544.19;;;10.90;72.34
79645;BME280;69117;47.148;18.954;2023-04-19T00:43:03;100534.06;;;10.75;72.72
79645;BME280;69117;47.148;18.954;2023-04-19T00:46:04;100522.09;;;10.62;72.19
79645;BME280;69117;47.148;18.954;2023-04-19T00:49:06;100541.28;;;10.73;73.37
79645;BME280;69117;47.148;18.954;2023-04-19T00:52:08;100531.69;;;10.72;72.55
79645;BME280;69117;47.148;18.954;2023-04-19T00:55:10;100520.44;;;10.61;72.27
79645;BME280;69117;47.148;18.954;2023-04-19T00:58:11;100527.38;;;10.62;72.23
79645;BME280;69117;47.148;18.954;2023-04-19T01:01:13;100514.47;;;10.59;72.58
79645;BME280;69117;47.148;18.954;2023-04-19T01:04:15;100525.03;;;10.59;73.34
79645;BME280;69117;47.148;18.954;2023-04-19T01:07:18;100520.44;;;10.70;73.23
79645;BME280;69117;47.148;18.954;2023-04-19T01:10:20;100501.81;;;10.52;73.63
79645;BME280;69117;47.148;18.954;2023-04-19T01:13:21;100484.16;;;10.43;74.19
79645;BME280;69117;47.148;18.954;2023-04-19T01:16:25;100516.97;;;10.60;74.04
79645;BME280;69117;47.148;18.954;2023-04-19T01:19:27;100511.16;;;10.57;72.90
79645;BME280;69117;47.148;18.954;2023-04-19T01:22:28;100514.19;;;10.52;73.75
79645;BME280;69117;47.148;18.954;2023-04-19T01:25:33;100502.38;;;10.46;73.77
79645;BME280;69117;47.148;18.954;2023-04-19T01:28:35;100490.84;;;10.28;73.76
79645;BME280;69117;47.148;18.954;2023-04-19T01:31:36;100506.00;;;10.36;73.63
79645;BME280;69117;47.148;18.954;2023-04-19T01:34:38;100497.81;;;10.29;73.87
79645;BME280;69117;47.148;18.954;2023-04-19T01:37:40;100495.31;;;10.27;73.34
79645;BME280;69117;47.148;18.954;2023-04-19T01:40:42;100504.56;;;10.22;74.25
79645;BME280;69117;47.148;18.954;2023-04-19T01:43:43;100481.91;;;10.09;73.54
79645;BME280;69117;47.148;18.954;2023-04-19T01:46:45;100487.63;;;10.15;73.87
79645;BME280;69117;47.148;18.954;2023-04-19T01:49:47;100478.72;;;10.06;72.99
79645;BME280;69117;47.148;18.954;2023-04-19T01:52:48;100492.78;;;10.26;71.71
79645;BME280;69117;47.148;18.954;2023-04-19T01:55:50;100494.47;;;10.37;70.88
79645;BME280;69117;47.148;18.954;2023-04-19T01:58:52;100494.47;;;10.37;71.50
79645;BME280;69117;47.148;18.954;2023-04-19T02:01:53;100494.47;;;10.37;70.72
79645;BME280;69117;47.148;18.954;2023-04-19T02:04:56;100495.84;;;10.31;71.73
79645;BME280;69117;47.148;18.954;2023-04-19T02:07:58;100486.00;;;10.33;71.10
79645;BME280;69117;47.148;18.954;2023-04-19T02:11:06;100489.34;;;10.35;70.28
79645;BME280;69117;47.148;18.954;2023-04-19T02:14:08;100488.22;;;10.28;71.17
79645;BME280;69117;47.148;18.954;2023-04-19T02:17:09;100478.72;;;10.16;72.08
79645;BME280;69117;47.148;18.954;2023-04-19T02:20:12;100474.56;;;10.13;71.23
79645;BME280;69117;47.148;18.954;2023-04-19T02:23:14;100470.53;;;9.99;71.69
79645;BME280;69117;47.148;18.954;2023-04-19T02:26:15;100463.72;;;9.87;71.73
79645;BME280;69117;47.148;18.954;2023-04-19T02:29:17;100452.28;;;9.67;72.28
79645;BME280;69117;47.148;18.954;2023-04-19T02:32:19;100468.28;;;9.85;72.69
79645;BME280;69117;47.148;18.954;2023-04-19T02:35:21;100463.00;;;9.85;72.29
79645;BME280;69117;47.148;18.954;2023-04-19T02:38:22;100445.09;;;9.69;73.12
79645;BME280;69117;47.148;18.954;2023-04-19T02:41:24;100460.38;;;9.75;73.61
79645;BME280;69117;47.148;18.954;2023-04-19T02:44:26;100436.56;;;9.56;73.78
79645;BME280;69117;47.148;18.954;2023-04-19T02:47:28;100464.22;;;9.71;74.48
79645;BME280;69117;47.148;18.954;2023-04-19T02:50:30;100470.09;;;9.75;74.17
79645;BME280;69117;47.148;18.954;2023-04-19T02:53:32;100450.63;;;9.66;74.65
79645;BME280;69117;47.148;18.954;2023-04-19T02:56:34;100455.22;;;9.74;74.54
79645;BME280;69117;47.148;18.954;2023-04-19T02:59:35;100454.09;;;9.76;73.67
79645;BME280;69117;47.148;18.954;2023-04-19T03:02:37;100451.75;;;9.73;73.71
79645;BME280;69117;47.148;18.954;2023-04-19T03:05:39;100447.03;;;9.77;73.51
79645;BME280;69117;47.148;18.954;2023-04-19T03:08:41;100412.56;;;9.59;73.26
79645;BME280;69117;47.148;18.954;2023-04-19T03:11:43;100434.81;;;9.76;73.82
79645;BME280;69117;47.148;18.954;2023-04-19T03:14:44;100439.53;;;9.72;73.19
79645;BME280;69117;47.148;18.954;2023-04-19T03:17:46;100414.94;;;9.62;72.72
79645;BME280;69117;47.148;18.954;2023-04-19T03:20:48;100434.53;;;9.69;71.99
79645;BME280;69117;47.148;18.954;2023-04-19T03:23:49;100416.19;;;9.58;71.88
79645;BME280;69117;47.148;18.954;2023-04-19T03:26:51;100428.00;;;9.63;71.54
79645;BME280;69117;47.148;18.954;2023-04-19T03:29:54;100425.19;;;9.55;67.02
79645;BME280;69117;47.148;18.954;2023-04-19T03:32:56;100404.78;;;9.38;57.17
79645;BME280;69117;47.148;18.954;2023-04-19T03:35:58;100427.91;;;9.34;0.00
79645;BME280;69117;47.148;18.954;2023-04-19T03:39:02;100429.56;;;9.26;0.00
79645;BME280;69117;47.148;18.954;2023-04-19T03:42:03;100423.44;;;9.15;0.00
79645;BME280;69117;47.148;18.954;2023-04-19T03:45:05;100418.31;;;9.24;0.00
79645;BME280;69117;47.148;18.954;2023-04-19T03:48:07;100417.78;;;9.20;0.00
79645;BME280;69117;47.148;18.954;2023-04-19T03:51:09;100415.78;;;9.12;0.00
79645;BME280;69117;47.148;18.954;2023-04-19T03:54:11;100412.06;;;9.15;0.00
79645;BME280;69117;47.148;18.954;2023-04-19T03:57:15;100419.41;;;9.11;0.00
79645;BME280;69117;47.148;18.954;2023-04-19T04:00:18;100425.22;;;9.15;0.00
79645;BME280;69117;47.148;18.954;2023-04-19T04:03:19;100410.50;;;9.03;0.00
79645;BME280;69117;47.148;18.954;2023-04-19T04:06:21;100403.28;;;9.05;0.00
79645;BME280;69117;47.148;18.954;2023-04-19T04:09:23;100412.72;;;9.07;0.00
79645;BME280;69117;47.148;18.954;2023-04-19T04:12:24;100396.59;;;9.01;0.00
79645;BME280;69117;47.148;18.954;2023-04-19T04:15:26;100420.94;;;9.14;0.00
79645;BME280;69117;47.148;18.954;2023-04-19T04:18:27;100419.69;;;9.18;0.00
79645;BME280;69117;47.148;18.954;2023-04-19T04:21:29;100410.13;;;9.17;0.00
79645;BME280;69117;47.148;18.954;2023-04-19T04:24:37;100406.97;;;9.23;0.00
79645;BME280;69117;47.148;18.954;2023-04-19T04:27:39;100424.44;;;9.34;0.00
79645;BME280;69117;47.148;18.954;2023-04-19T04:30:40;100425.28;;;9.34;0.00
79645;BME280;69117;47.148;18.954;2023-04-19T04:33:43;100420.72;;;9.36;0.00
79645;BME280;69117;47.148;18.954;2023-04-19T04:36:46;100397.66;;;9.29;0.00
79645;BME280;69117;47.148;18.954;2023-04-19T04:39:49;100408.25;;;9.48;0.00
79645;BME280;69117;47.148;18.954;2023-04-19T04:42:51;100409.91;;;9.59;0.00
79645;BME280;69117;47.148;18.954;2023-04-19T04:45:53;100409.66;;;9.62;0.00
79645;BME280;69117;47.148;18.954;2023-04-19T04:48:56;100398.28;;;9.61;0.00
79645;BME280;69117;47.148;18.954;2023-04-19T04:51:57;100417.72;;;9.80;0.00
79645;BME280;69117;47.148;18.954;2023-04-19T04:54:59;100416.22;;;9.87;0.00
79645;BME280;69117;47.148;18.954;2023-04-19T04:58:01;100408.59;;;9.84;0.00
79645;BME280;69117;47.148;18.954;2023-04-19T05:01:02;100413.31;;;9.90;0.00
79645;BME280;69117;47.148;18.954;2023-04-19T05:04:04;100392.75;;;9.84;0.00
79645;BME280;69117;47.148;18.954;2023-04-19T05:07:06;100402.31;;;9.95;0.00
79645;BME280;69117;47.148;18.954;2023-04-19T05:10:08;100405.25;;;9.82;0.00
79645;BME280;69117;47.148;18.954;2023-04-19T05:13:10;100408.03;;;9.80;0.00
79645;BME280;69117;47.148;18.954;2023-04-19T05:16:12;100402.44;;;9.74;0.00
79645;BME280;69117;47.148;18.954;2023-04-19T05:19:14;100413.28;;;9.71;0.00
79645;BME280;69117;47.148;18.954;2023-04-19T05:22:15;100396.19;;;9.65;0.00
79645;BME280;69117;47.148;18.954;2023-04-19T05:25:17;100397.44;;;9.71;0.00
79645;BME280;69117;47.148;18.954;2023-04-19T05:28:18;100404.41;;;9.91;0.00
79645;BME280;69117;47.148;18.954;2023-04-19T05:31:21;100399.81;;;10.03;0.00
79645;BME280;69117;47.148;18.954;2023-04-19T05:34:23;100402.06;;;10.27;0.00
79645;BME280;69117;47.148;18.954;2023-04-19T05:37:24;100408.16;;;10.37;0.00
79645;BME280;69117;47.148;18.954;2023-04-19T05:40:26;100408.28;;;10.45;0.00
79645;BME280;69117;47.148;18.954;2023-04-19T05:43:28;100405.31;;;10.58;0.00
79645;BME280;69117;47.148;18.954;2023-04-19T05:46:30;100402.06;;;10.84;0.00
79645;BME280;69117;47.148;18.954;2023-04-19T05:49:32;100356.47;;;10.72;0.00
79645;BME280;69117;47.148;18.954;2023-04-19T05:52:33;100402.06;;;11.11;0.00
79645;BME280;69117;47.148;18.954;2023-04-19T05:55:35;100400.72;;;11.35;0.00
79645;BME280;69117;47.148;18.954;2023-04-19T05:58:37;100392.78;;;11.53;0.00
79645;BME280;69117;47.148;18.954;2023-04-19T06:01:38;100405.22;;;11.88;0.00
79645;BME280;69117;47.148;18.954;2023-04-19T06:04:40;100398.00;;;12.16;0.00
79645;BME280;69117;47.148;18.954;2023-04-19T06:07:42;100397.06;;;12.43;0.00
79645;BME280;69117;47.148;18.954;2023-04-19T06:10:59;100395.50;;;12.58;67.95
79645;BME280;69117;47.148;18.954;2023-04-19T06:14:15;100388.28;;;12.43;65.82
79645;BME280;69117;47.148;18.954;2023-04-19T06:17:18;100395.16;;;12.53;63.87
79645;BME280;69117;47.148;18.954;2023-04-19T06:20:24;100403.19;;;12.70;66.16
79645;BME280;69117;47.148;18.954;2023-04-19T06:23:26;100386.41;;;12.61;63.46
79645;BME280;69117;47.148;18.954;2023-04-19T06:26:28;100390.13;;;12.76;65.22
79645;BME280;69117;47.148;18.954;2023-04-19T06:29:29;100403.88;;;13.06;64.46
79645;BME280;69117;47.148;18.954;2023-04-19T06:32:31;100389.44;;;13.35;65.23
79645;BME280;69117;47.148;18.954;2023-04-19T06:35:33;100399.56;;;13.47;63.84
79645;BME280;69117;47.148;18.954;2023-04-19T06:38:34;100392.41;;;13.40;64.93
79645;BME280;69117;47.148;18.954;2023-04-19T06:41:36;100398.09;;;13.19;62.75
79645;BME280;69117;47.148;18.954;2023-04-19T06:44:37;100396.63;;;13.16;64.40
79645;BME280;69117;47.148;18.954;2023-04-19T06:47:39;100388.25;;;13.29;62.48
79645;BME280;69117;47.148;18.954;2023-04-19T06:50:41;100385.53;;;13.21;63.04
79645;BME280;69117;47.148;18.954;2023-04-19T06:53:42;100373.38;;;13.02;63.70
79645;BME280;69117;47.148;18.954;2023-04-19T06:56:46;100395.97;;;13.65;64.89
79645;BME280;69117;47.148;18.954;2023-04-19T06:59:48;100389.19;;;13.87;62.31
79645;BME280;69117;47.148;18.954;2023-04-19T07:02:50;100372.75;;;14.08;62.06
79645;BME280;69117;47.148;18.954;2023-04-19T07:05:52;100372.91;;;14.23;61.82
79645;BME280;69117;47.148;18.954;2023-04-19T07:08:56;100382.66;;;14.63;61.72
79645;BME280;69117;47.148;18.954;2023-04-19T07:11:58;100383.19;;;14.50;59.85
79645;BME280;69117;47.148;18.954;2023-04-19T07:14:59;100384.69;;;14.53;60.00
79645;BME280;69117;47.148;18.954;2023-04-19T07:18:01;100375.16;;;14.75;60.42
79645;BME280;69117;47.148;18.954;2023-04-19T07:21:03;100352.25;;;14.74;60.66
79645;BME280;69117;47.148;18.954;2023-04-19T07:24:05;100383.06;;;14.91;58.87
79645;BME280;69117;47.148;18.954;2023-04-19T07:27:07;100378.78;;;14.82;60.39
79645;BME280;69117;47.148;18.954;2023-04-19T07:30:10;100377.16;;;14.73;61.53
79645;BME280;69117;47.148;18.954;2023-04-19T07:33:12;100372.38;;;14.60;61.00
79645;BME280;69117;47.148;18.954;2023-04-19T07:36:13;100371.19;;;14.46;60.30
79645;BME280;69117;47.148;18.954;2023-04-19T07:39:15;100378.38;;;14.54;60.90
79645;BME280;69117;47.148;18.954;2023-04-19T07:42:16;100385.50;;;14.61;62.25
79645;BME280;69117;47.148;18.954;2023-04-19T07:45:18;100383.69;;;14.62;61.49
79645;BME280;69117;47.148;18.954;2023-04-19T07:48:20;100383.34;;;14.65;60.97
79645;BME280;69117;47.148;18.954;2023-04-19T07:51:21;100381.22;;;15.00;62.14
79645;BME280;69117;47.148;18.954;2023-04-19T07:54:24;100359.63;;;15.34;57.54
79645;BME280;69117;47.148;18.954;2023-04-19T07:57:26;100345.13;;;15.68;57.07
79645;BME280;69117;47.148;18.954;2023-04-19T08:00:28;100362.63;;;16.23;58.37
79645;BME280;69117;47.148;18.954;2023-04-19T08:03:35;100368.25;;;16.43;54.79
79645;BME280;69117;47.148;18.954;2023-04-19T08:06:38;100362.09;;;16.57;57.81
79645;BME280;69117;47.148;18.954;2023-04-19T08:09:40;100364.97;;;16.70;51.46
79645;BME280;69117;47.148;18.954;2023-04-19T08:12:41;100363.13;;;16.41;57.30
79645;BME280;69117;47.148;18.954;2023-04-19T08:16:01;100376.25;;;16.28;55.32
79645;BME280;69117;47.148;18.954;2023-04-19T08:19:23;100372.09;;;16.25;55.63
79645;BME280;69117;47.148;18.954;2023-04-19T08:22:25;100371.66;;;16.52;54.80
79645;BME280;69117;47.148;18.954;2023-04-19T08:25:27;100370.59;;;16.46;54.09
79645;BME280;69117;47.148;18.954;2023-04-19T08:28:29;100378.22;;;16.49;56.97
79645;BME280;69117;47.148;18.954;2023-04-19T08:31:30;100378.19;;;16.64;53.61
79645;BME280;69117;47.148;18.954;2023-04-19T08:34:35;100369.22;;;16.65;53.64
79645;BME280;69117;47.148;18.954;2023-04-19T08:37:37;100369.28;;;16.71;49.73
79645;BME280;69117;47.148;18.954;2023-04-19T08:40:45;100355.31;;;16.99;51.83
79645;BME280;69117;47.148;18.954;2023-04-19T08:43:49;100343.59;;;17.15;45.59
79645;BME280;69117;47.148;18.954;2023-04-19T08:46:52;100350.59;;;17.16;46.64
79645;BME280;69117;47.148;18.954;2023-04-19T08:49:54;100357.47;;;17.40;44.02
79645;BME280;69117;47.148;18.954;2023-04-19T08:53:17;100338.94;;;17.60;43.76
79645;BME280;69117;47.148;18.954;2023-04-19T08:56:26;100342.34;;;17.90;45.72
79645;BME280;69117;47.148;18.954;2023-04-19T08:59:36;100350.78;;;17.72;42.75
79645;BME280;69117;47.148;18.954;2023-04-19T09:05:48;100329.56;;;18.14;38.55
79645;BME280;69117;47.148;18.954;2023-04-19T09:08:50;100330.25;;;18.22;40.32
79645;BME280;69117;47.148;18.954;2023-04-19T09:11:58;100342.16;;;18.76;41.05
79645;BME280;69117;47.148;18.954;2023-04-19T09:15:01;100330.88;;;18.52;37.64
79645;BME280;69117;47.148;18.954;2023-04-19T09:18:06;100333.53;;;18.24;39.91
79645;BME280;69117;47.148;18.954;2023-04-19T09:21:08;100340.19;;;18.28;40.89
79645;BME280;69117;47.148;18.954;2023-04-19T09:24:10;100341.63;;;18.03;42.52
79645;BME280;69117;47.148;18.954;2023-04-19T09:27:14;100328.28;;;18.31;42.51
79645;BME280;69117;47.148;18.954;2023-04-19T09:30:20;100334.69;;;17.66;43.69
79645;BME280;69117;47.148;18.954;2023-04-19T09:33:36;100327.84;;;17.20;45.86
79645;BME280;69117;47.148;18.954;2023-04-19T09:36:40;100322.75;;;16.74;48.38
79645;BME280;69117;47.148;18.954;2023-04-19T09:39:42;100327.50;;;17.08;49.17
79645;BME280;69117;47.148;18.954;2023-04-19T09:42:44;100325.94;;;17.14;48.13
79645;BME280;69117;47.148;18.954;2023-04-19T09:45:50;100314.06;;;17.59;47.67
79645;BME280;69117;47.148;18.954;2023-04-19T09:48:52;100329.78;;;17.91;48.52
79645;BME280;69117;47.148;18.954;2023-04-19T09:51:54;100319.31;;;17.68;47.09
79645;BME280;69117;47.148;18.954;2023-04-19T09:54:59;100320.66;;;17.21;46.56
79645;BME280;69117;47.148;18.954;2023-04-19T09:58:06;100313.81;;;16.97;47.63
79645;BME280;69117;47.148;18.954;2023-04-19T10:01:09;100328.47;;;16.86;44.68
79645;BME280;69117;47.148;18.954;2023-04-19T10:04:17;100325.59;;;16.72;44.47
79645;BME280;69117;47.148;18.954;2023-04-19T10:07:43;100314.66;;;16.67;44.05
79645;BME280;69117;47.148;18.954;2023-04-19T10:10:45;100329.72;;;17.05;46.20
79645;BME280;69117;47.148;18.954;2023-04-19T10:13:55;100306.75;;;16.59;46.31
79645;BME280;69117;47.148;18.954;2023-04-19T10:16:57;100330.66;;;16.82;47.96
79645;BME280;69117;47.148;18.954;2023-04-19T10:20:04;100315.38;;;16.91;49.69
79645;BME280;69117;47.148;18.954;2023-04-19T10:23:07;100316.75;;;17.02;47.79
79645;BME280;69117;47.148;18.954;2023-04-19T10:26:11;100310.09;;;17.12;44.70
79645;BME280;69117;47.148;18.954;2023-04-19T10:29:13;100317.78;;;17.37;46.54
79645;BME280;69117;47.148;18.954;2023-04-19T10:32:15;100308.28;;;17.56;45.37
79645;BME280;69117;47.148;18.954;2023-04-19T10:38:19;100302.09;;;18.26;45.87
79645;BME280;69117;47.148;18.954;2023-04-19T10:41:21;100300.66;;;18.59;45.40
79645;BME280;69117;47.148;18.954;2023-04-19T10:44:23;100290.50;;;20.03;43.12
79645;BME280;69117;47.148;18.954;2023-04-19T10:47:43;100292.78;;;21.23;39.92
79645;BME280;69117;47.148;18.954;2023-04-19T10:57:06;100263.34;;;20.45;38.77
79645;BME280;69117;47.148;18.954;2023-04-19T11:00:21;100277.66;;;20.90;37.45
79645;BME280;69117;47.148;18.954;2023-04-19T11:10:04;100273.50;;;20.43;39.84
79645;BME280;69117;47.148;18.954;2023-04-19T11:13:05;100284.78;;;18.57;43.69
79645;BME280;69117;47.148;18.954;2023-04-19T11:16:08;100263.63;;;17.71;46.55
79645;BME280;69117;47.148;18.954;2023-04-19T11:19:09;100279.69;;;17.50;47.93
79645;BME280;69117;47.148;18.954;2023-04-19T11:22:15;100281.00;;;17.17;48.60
79645;BME280;69117;47.148;18.954;2023-04-19T11:25:19;100265.50;;;17.28;46.01
79645;BME280;69117;47.148;18.954;2023-04-19T11:28:22;100276.97;;;17.93;46.99
79645;BME280;69117;47.148;18.954;2023-04-19T11:31:24;100259.34;;;19.49;43.71
79645;BME280;69117;47.148;18.954;2023-04-19T11:34:26;100267.97;;;20.31;40.06
79645;BME280;69117;47.148;18.954;2023-04-19T11:37:31;100256.88;;;20.79;39.89
79645;BME280;69117;47.148;18.954;2023-04-19T11:40:36;100248.50;;;21.00;38.68
79645;BME280;69117;47.148;18.954;2023-04-19T11:43:38;100247.28;;;21.28;36.69
79645;BME280;69117;47.148;18.954;2023-04-19T11:46:40;100260.66;;;21.35;36.24
79645;BME280;69117;47.148;18.954;2023-04-19T11:49:42;100262.34;;;21.36;36.08
79645;BME280;69117;47.148;18.954;2023-04-19T11:52:48;100261.03;;;21.45;40.17
79645;BME280;69117;47.148;18.954;2023-04-19T11:58:56;100250.13;;;21.40;37.99
79645;BME280;69117;47.148;18.954;2023-04-19T12:02:08;100255.75;;;22.07;37.38
79645;BME280;69117;47.148;18.954;2023-04-19T12:05:12;100263.81;;;22.07;35.75
79645;BME280;69117;47.148;18.954;2023-04-19T12:08:14;100260.66;;;20.51;36.51
79645;BME280;69117;47.148;18.954;2023-04-19T12:11:18;100258.66;;;20.92;37.25
79645;BME280;69117;47.148;18.954;2023-04-19T12:14:21;100239.63;;;21.00;37.77
79645;BME280;69117;47.148;18.954;2023-04-19T12:17:23;100260.94;;;21.26;38.18
79645;BME280;69117;47.148;18.954;2023-04-19T12:20:34;100242.94;;;21.84;34.50
79645;BME280;69117;47.148;18.954;2023-04-19T12:23:36;100242.09;;;21.33;34.50
79645;BME280;69117;47.148;18.954;2023-04-19T12:26:52;100231.25;;;21.46;34.14
79645;BME280;69117;47.148;18.954;2023-04-19T12:29:56;100246.50;;;20.31;36.61
79645;BME280;69117;47.148;18.954;2023-04-19T12:32:58;100239.66;;;21.25;35.23
79645;BME280;69117;47.148;18.954;2023-04-19T12:36:00;100237.28;;;21.92;33.46
79645;BME280;69117;47.148;18.954;2023-04-19T12:39:01;100206.25;;;22.08;31.58
79645;BME280;69117;47.148;18.954;2023-04-19T12:42:03;100227.94;;;22.68;32.04
79645;BME280;69117;47.148;18.954;2023-04-19T12:45:07;100225.25;;;22.68;31.42
79645;BME280;69117;47.148;18.954;2023-04-19T12:48:08;100234.97;;;20.75;35.59
79645;BME280;69117;47.148;18.954;2023-04-19T12:51:10;100222.75;;;20.28;36.73
79645;BME280;69117;47.148;18.954;2023-04-19T12:54:13;100231.09;;;22.10;33.47
79645;BME280;69117;47.148;18.954;2023-04-19T12:57:15;100223.81;;;21.92;33.10
79645;BME280;69117;47.148;18.954;2023-04-19T13:00:16;100216.84;;;21.84;35.05
79645;BME280;69117;47.148;18.954;2023-04-19T13:03:18;100230.59;;;22.86;34.15
79645;BME280;69117;47.148;18.954;2023-04-19T13:06:20;100217.16;;;23.28;35.78
79645;BME280;69117;47.148;18.954;2023-04-19T13:12:23;100226.16;;;23.11;34.32
79645;BME280;69117;47.148;18.954;2023-04-19T13:15:25;100218.66;;;21.90;33.90
79645;BME280;69117;47.148;18.954;2023-04-19T13:18:26;100224.50;;;19.89;36.53
79645;BME280;69117;47.148;18.954;2023-04-19T13:21:28;100221.56;;;19.17;39.83
79645;BME280;69117;47.148;18.954;2023-04-19T13:24:30;100220.78;;;19.83;37.10
79645;BME280;69117;47.148;18.954;2023-04-19T13:27:31;100210.09;;;20.42;38.82
79645;BME280;69117;47.148;18.954;2023-04-19T13:30:33;100215.00;;;19.53;38.37
79645;BME280;69117;47.148;18.954;2023-04-19T13:33:34;100227.06;;;20.35;37.22
79645;BME280;69117;47.148;18.954;2023-04-19T13:36:36;100210.41;;;20.72;36.19
79645;BME280;69117;47.148;18.954;2023-04-19T13:39:39;100214.53;;;21.13;34.86
79645;BME280;69117;47.148;18.954;2023-04-19T13:42:40;100212.13;;;21.61;34.85
79645;BME280;69117;47.148;18.954;2023-04-19T13:45:42;100187.78;;;21.75;37.44
79645;BME280;69117;47.148;18.954;2023-04-19T13:48:44;100225.22;;;21.19;41.20
79645;BME280;69117;47.148;18.954;2023-04-19T13:51:45;100225.47;;;20.14;43.18
79645;BME280;69117;47.148;18.954;2023-04-19T13:54:51;100228.72;;;18.42;47.04
79645;BME280;69117;47.148;18.954;2023-04-19T13:57:53;100219.44;;;17.75;49.36
79645;BME280;69117;47.148;18.954;2023-04-19T14:00:54;100215.91;;;17.40;48.71
79645;BME280;69117;47.148;18.954;2023-04-19T14:03:56;100218.31;;;17.13;49.62
79645;BME280;69117;47.148;18.954;2023-04-19T14:06:58;100219.19;;;17.21;50.06
79645;BME280;69117;47.148;18.954;2023-04-19T14:09:59;100213.44;;;18.29;46.02
79645;BME280;69117;47.148;18.954;2023-04-19T14:13:01;100214.19;;;19.86;43.95
79645;BME280;69117;47.148;18.954;2023-04-19T14:16:03;100217.38;;;18.82;47.71
79645;BME280;69117;47.148;18.954;2023-04-19T14:19:05;100219.25;;;17.98;52.55
79645;BME280;69117;47.148;18.954;2023-04-19T14:22:07;100222.38;;;17.52;54.98
79645;BME280;69117;47.148;18.954;2023-04-19T14:25:09;100222.63;;;16.93;55.12
79645;BME280;69117;47.148;18.954;2023-04-19T14:28:11;100228.66;;;16.80;56.87
79645;BME280;69117;47.148;18.954;2023-04-19T14:31:13;100200.78;;;17.04;55.01
79645;BME280;69117;47.148;18.954;2023-04-19T14:34:14;100223.47;;;18.21;54.51
79645;BME280;69117;47.148;18.954;2023-04-19T14:37:17;100229.47;;;18.23;52.69
79645;BME280;69117;47.148;18.954;2023-04-19T14:40:18;100219.47;;;18.03;53.80
79645;BME280;69117;47.148;18.954;2023-04-19T14:43:21;100230.94;;;18.32;53.28
79645;BME280;69117;47.148;18.954;2023-04-19T14:46:22;100235.16;;;18.13;51.09
79645;BME280;69117;47.148;18.954;2023-04-19T14:49:24;100226.88;;;16.87;53.46
79645;BME280;69117;47.148;18.954;2023-04-19T14:52:26;100243.97;;;17.79;51.89
79645;BME280;69117;47.148;18.954;2023-04-19T14:55:27;100246.84;;;17.56;51.19
79645;BME280;69117;47.148;18.954;2023-04-19T14:58:29;100248.81;;;18.25;50.62
79645;BME280;69117;47.148;18.954;2023-04-19T15:01:31;100224.09;;;18.23;48.37
79645;BME280;69117;47.148;18.954;2023-04-19T15:04:33;100245.34;;;17.75;50.96
79645;BME280;69117;47.148;18.954;2023-04-19T15:07:39;100230.38;;;18.37;48.03
79645;BME280;69117;47.148;18.954;2023-04-19T15:10:40;100212.66;;;18.97;48.98
79645;BME280;69117;47.148;18.954;2023-04-19T15:13:42;100246.75;;;19.56;46.26
79645;BME280;69117;47.148;18.954;2023-04-19T15:16:44;100240.97;;;19.46;46.85
79645;BME280;69117;47.148;18.954;2023-04-19T15:19:45;100237.22;;;19.14;47.76
79645;BME280;69117;47.148;18.954;2023-04-19T15:22:47;100244.19;;;18.88;49.26
79645;BME280;69117;47.148;18.954;2023-04-19T15:25:49;100250.03;;;19.18;47.75
79645;BME280;69117;47.148;18.954;2023-04-19T15:28:51;100251.75;;;18.78;49.12
79645;BME280;69117;47.148;18.954;2023-04-19T15:31:54;100248.03;;;18.31;50.26
79645;BME280;69117;47.148;18.954;2023-04-19T15:34:56;100255.34;;;18.57;48.10
79645;BME280;69117;47.148;18.954;2023-04-19T15:37:57;100257.06;;;19.46;46.88
79645;BME280;69117;47.148;18.954;2023-04-19T15:40:59;100258.16;;;18.84;46.51
79645;BME280;69117;47.148;18.954;2023-04-19T15:44:03;100261.50;;;18.58;45.97
79645;BME280;69117;47.148;18.954;2023-04-19T15:47:05;100260.66;;;18.92;45.45
79645;BME280;69117;47.148;18.954;2023-04-19T15:50:07;100267.66;;;18.99;45.07
79645;BME280;69117;47.148;18.954;2023-04-19T15:53:09;100263.28;;;19.80;44.89
79645;BME280;69117;47.148;18.954;2023-04-19T15:56:11;100246.53;;;19.31;45.00
79645;BME280;69117;47.148;18.954;2023-04-19T15:59:12;100270.41;;;19.13;46.09
79645;BME280;69117;47.148;18.954;2023-04-19T16:02:14;100274.06;;;18.98;46.89
79645;BME280;69117;47.148;18.954;2023-04-19T16:05:16;100271.81;;;19.09;46.76
79645;BME280;69117;47.148;18.954;2023-04-19T16:08:18;100272.31;;;19.52;45.72
79645;BME280;69117;47.148;18.954;2023-04-19T16:11:21;100270.44;;;19.33;46.53